Time;durP1;ratioP1;P1;durP2;ratioP2;P2;SDS_P1;SDS_P2;PMS_P1;PMS_P2;Temp;Humidity;BMP_temperature;BMP_pressure;BME280_temperature;BME280_humidity;BME280_pressure;Samples;Min_cycle;Max_cycle;Signal;HPM_P1;HPM_P2
2022/12/12 00:02:42;;;;;;;15.95;5.53;;;4.80;56.90;;;;;;6253989;28;20145;-77
2022/12/12 00:05:43;;;;;;;18.08;6.75;;;4.80;56.90;;;;;;6255422;28;20041;-77
2022/12/12 00:08:44;;;;;;;11.45;5.30;;;4.80;57.40;;;;;;6238730;28;20041;-79
2022/12/12 00:11:45;;;;;;;12.32;6.38;;;4.80;56.80;;;;;;6245490;28;20061;-78
2022/12/12 00:14:46;;;;;;;11.18;4.93;;;4.80;56.90;;;;;;6247294;28;20382;-79
2022/12/12 00:17:47;;;;;;;17.20;5.93;;;4.80;56.90;;;;;;6240789;28;20034;-78
2022/12/12 00:20:53;;;;;;;12.93;4.60;;;4.70;56.80;;;;;;6239584;28;20383;-78
2022/12/12 00:23:55;;;;;;;15.45;5.47;;;4.70;56.80;;;;;;6225264;28;20121;-77
2022/12/12 00:26:57;;;;;;;12.98;5.80;;;4.70;56.70;;;;;;6199701;28;20034;-77
2022/12/12 00:29:59;;;;;;;10.60;5.07;;;4.70;56.80;;;;;;6210372;28;20117;-77
2022/12/12 00:33:00;;;;;;;9.98;5.07;;;4.60;56.80;;;;;;6224438;28;20518;-78
2022/12/12 00:36:01;;;;;;;9.13;5.43;;;4.60;56.90;;;;;;6206951;28;20328;-78
2022/12/12 00:39:02;;;;;;;12.40;5.70;;;4.60;56.90;;;;;;6222517;28;20065;-78
2022/12/12 00:42:03;;;;;;;14.93;6.57;;;4.60;56.90;;;;;;6239976;28;20030;-77
2022/12/12 00:45:04;;;;;;;8.30;4.93;;;4.70;57.00;;;;;;6240044;28;20030;-79
2022/12/12 00:48:06;;;;;;;10.48;5.40;;;4.70;57.00;;;;;;6223634;28;20045;-78
2022/12/12 00:51:10;;;;;;;11.32;5.60;;;4.70;57.00;;;;;;6234485;28;20301;-78
2022/12/12 00:54:11;;;;;;;9.45;4.57;;;4.70;56.90;;;;;;6262865;28;20112;-77
2022/12/12 00:57:12;;;;;;;9.77;5.03;;;4.70;56.90;;;;;;6246878;28;20362;-78
2022/12/12 01:00:14;;;;;;;12.30;5.47;;;4.70;56.90;;;;;;6211135;28;20037;-77
2022/12/12 01:03:15;;;;;;;8.23;5.03;;;4.70;56.90;;;;;;6260480;28;20068;-78
2022/12/12 01:06:16;;;;;;;13.95;5.15;;;4.70;56.90;;;;;;6245274;28;20042;-77
2022/12/12 01:09:17;;;;;;;12.35;5.25;;;4.70;56.90;;;;;;6261850;28;20026;-77
2022/12/12 01:12:19;;;;;;;9.68;4.88;;;4.70;56.90;;;;;;6262261;28;20617;-76
2022/12/12 01:15:20;;;;;;;16.33;6.80;;;4.70;56.90;;;;;;6248366;28;20061;-77
2022/12/12 01:18:21;;;;;;;9.52;5.05;;;4.70;56.90;;;;;;6248303;28;20041;-77
2022/12/12 01:21:22;;;;;;;13.23;5.88;;;4.80;57.00;;;;;;6263988;28;20498;-79
2022/12/12 01:24:23;;;;;;;10.38;5.63;;;4.80;56.90;;;;;;6221583;28;20468;-79
2022/12/12 01:27:23;;;;;;;13.18;6.22;;;4.70;56.90;;;;;;6230737;28;20064;-79
2022/12/12 01:30:25;;;;;;;11.32;5.78;;;4.80;57.00;;;;;;6263601;28;20397;-78
2022/12/12 01:33:26;;;;;;;11.52;5.65;;;4.70;57.00;;;;;;6247510;28;20029;-78
2022/12/12 01:36:27;;;;;;;14.73;6.03;;;4.80;57.00;;;;;;6263611;28;20072;-78
2022/12/12 01:39:28;;;;;;;16.58;4.63;;;4.80;57.00;;;;;;6246771;28;20033;-78
2022/12/12 01:42:29;;;;;;;13.15;6.25;;;4.80;57.10;;;;;;6246919;28;20091;-78
2022/12/12 01:45:57;;;;;;;8.75;4.60;;;4.80;57.10;;;;;;6246508;28;20095;-79
2022/12/12 01:49:11;;;;;;;8.35;4.60;;;4.80;57.10;;;;;;6254263;28;20037;-77
2022/12/12 01:52:18;;;;;;;10.77;5.88;;;4.80;57.10;;;;;;6241409;28;20504;-78
2022/12/12 01:55:22;;;;;;;12.55;5.35;;;4.80;57.10;;;;;;6192722;28;20596;-79
2022/12/12 01:58:24;;;;;;;10.35;5.03;;;4.80;57.10;;;;;;6191673;28;20129;-78
2022/12/12 02:01:25;;;;;;;10.60;5.70;;;4.80;57.20;;;;;;6213405;28;20076;-78
2022/12/12 02:04:29;;;;;;;11.05;5.25;;;4.70;57.10;;;;;;6199993;28;20041;-78
2022/12/12 02:07:30;;;;;;;11.13;5.43;;;4.80;57.30;;;;;;6233084;28;20071;-78
2022/12/12 02:10:31;;;;;;;10.68;5.72;;;4.80;57.20;;;;;;6237634;28;20044;-78
2022/12/12 02:13:34;;;;;;;11.40;5.05;;;4.70;57.20;;;;;;6243455;28;20048;-79
2022/12/12 02:16:47;;;;;;;8.07;4.82;;;4.70;57.20;;;;;;6242396;28;20064;-79
2022/12/12 02:20:25;;;;;;;16.10;6.25;;;4.70;57.20;;;;;;6258485;28;20045;-78
2022/12/12 02:23:46;;;;;;;12.43;6.32;;;4.60;57.30;;;;;;6216991;28;20176;-78
2022/12/12 02:27:37;;;;;;;12.50;6.03;;;4.60;57.40;;;;;;6197376;28;20077;-77
2022/12/12 02:31:11;;;;;;;14.30;5.45;;;4.60;57.60;;;;;;6127748;28;20373;-77
2022/12/12 02:34:26;;;;;;;16.95;5.95;;;4.50;57.80;;;;;;6139404;28;20063;-78
2022/12/12 02:37:45;;;;;;;12.60;5.97;;;4.50;57.90;;;;;;6143138;28;20376;-77
2022/12/12 02:41:12;;;;;;;14.82;4.72;;;4.50;58.10;;;;;;6141922;28;20373;-77
2022/12/12 02:44:31;;;;;;;9.35;5.38;;;4.50;58.10;;;;;;6143072;28;20050;-77
2022/12/12 02:47:38;;;;;;;6.57;3.47;;;4.50;58.10;;;;;;6141456;28;20035;-78
2022/12/12 02:50:40;;;;;;;11.43;4.57;;;4.40;57.90;;;;;;6131051;28;20039;-78
2022/12/12 02:53:41;;;;;;;9.50;5.10;;;4.40;57.80;;;;;;6136669;28;20184;-77
2022/12/12 02:56:54;;;;;;;9.80;4.85;;;4.40;57.70;;;;;;6125086;28;20039;-77
2022/12/12 03:00:07;;;;;;;9.50;5.15;;;4.40;57.70;;;;;;6144078;28;21085;-77
2022/12/12 03:10:25;;;;;;;9.38;4.18;;;4.40;57.60;;;;;;6220217;28;20450;-79
2022/12/12 03:13:46;;;;;;;11.23;3.88;;;4.30;57.60;;;;;;6211463;28;20045;-79
2022/12/12 03:17:07;;;;;;;12.40;5.15;;;4.40;57.70;;;;;;6199668;28;20070;-78
2022/12/12 03:20:21;;;;;;;8.38;4.47;;;4.40;57.50;;;;;;6207536;28;20349;-77
2022/12/12 03:23:46;;;;;;;7.28;3.90;;;4.40;57.50;;;;;;6221807;28;20058;-78
2022/12/12 03:27:06;;;;;;;10.07;4.20;;;4.40;57.40;;;;;;6197488;28;20407;-78
2022/12/12 03:30:16;;;;;;;14.55;5.00;;;4.30;57.40;;;;;;6219839;28;20120;-78
2022/12/12 03:33:41;;;;;;;6.38;3.67;;;4.30;57.50;;;;;;6223059;28;20038;-77
2022/12/12 03:36:54;;;;;;;8.43;4.40;;;4.30;57.50;;;;;;6247279;28;20064;-78
2022/12/12 03:40:00;;;;;;;10.15;4.97;;;4.30;58.00;;;;;;6260526;28;20099;-77
2022/12/12 03:43:22;;;;;;;9.50;4.70;;;4.30;57.50;;;;;;6260160;28;20076;-77
2022/12/12 03:46:37;;;;;;;9.20;4.32;;;4.30;57.50;;;;;;6268232;28;20541;-78
2022/12/12 03:49:48;;;;;;;12.73;6.70;;;4.20;57.50;;;;;;6249192;28;20041;-77
2022/12/12 03:53:05;;;;;;;12.27;6.20;;;4.20;57.60;;;;;;6251174;28;20350;-79
2022/12/12 03:56:20;;;;;;;14.10;6.67;;;4.20;57.80;;;;;;6260233;28;20434;-77
2022/12/12 03:59:33;;;;;;;12.18;6.20;;;4.20;57.80;;;;;;6238173;28;20467;-77
2022/12/12 04:02:39;;;;;;;16.40;6.88;;;4.20;57.90;;;;;;6215347;28;20050;-78
2022/12/12 04:13:09;;;;;;;19.08;5.68;;;4.20;58.10;;;;;;6244634;28;20083;-78
2022/12/12 04:16:15;;;;;;;11.15;5.95;;;4.20;58.20;;;;;;6256740;28;20478;-77
2022/12/12 04:23:19;;;;;;;11.13;5.22;;;4.10;58.50;;;;;;6243477;28;20036;-79
2022/12/12 04:26:40;;;;;;;9.25;4.85;;;4.10;58.50;;;;;;6220241;28;20427;-79
2022/12/12 04:29:54;;;;;;;11.32;5.32;;;4.10;58.70;;;;;;6220201;28;20038;-79
2022/12/12 04:33:06;;;;;;;12.50;5.80;;;4.10;58.70;;;;;;6221559;28;20366;-78
2022/12/12 04:36:11;;;;;;;12.25;5.80;;;4.10;58.80;;;;;;6234926;28;20041;-78
2022/12/12 04:39:14;;;;;;;13.55;7.10;;;4.10;58.80;;;;;;6235578;28;20038;-76
2022/12/12 04:42:20;;;;;;;9.63;4.95;;;4.10;58.80;;;;;;6250466;28;20041;-76
2022/12/12 04:45:27;;;;;;;10.02;5.78;;;4.10;58.80;;;;;;6242239;28;20087;-76
2022/12/12 04:48:54;;;;;;;13.13;5.57;;;4.10;58.80;;;;;;6233595;28;20539;-77
2022/12/12 04:52:01;;;;;;;13.30;5.85;;;4.20;58.70;;;;;;6212280;28;20400;-78
2022/12/12 04:55:18;;;;;;;5.60;3.33;;;4.20;58.70;;;;;;6209718;28;20042;-79
2022/12/12 04:58:19;;;;;;;7.55;3.95;;;4.20;58.60;;;;;;6196715;28;20046;-78
2022/12/12 05:01:35;;;;;;;12.18;5.07;;;4.10;58.50;;;;;;6234781;28;20125;-78
2022/12/12 05:05:05;;;;;;;12.43;4.85;;;4.10;58.40;;;;;;6219771;28;20034;-77
2022/12/12 05:08:21;;;;;;;7.15;3.38;;;4.10;58.30;;;;;;6233515;28;20037;-78
2022/12/12 05:11:23;;;;;;;6.88;4.47;;;4.10;58.20;;;;;;6235117;28;20030;-78
2022/12/12 05:14:24;;;;;;;8.23;3.72;;;4.10;58.00;;;;;;6234319;28;20073;-77
2022/12/12 05:17:32;;;;;;;9.48;4.35;;;4.10;57.90;;;;;;6218916;28;20042;-77
2022/12/12 05:20:33;;;;;;;9.48;4.82;;;4.10;57.90;;;;;;6234280;28;20042;-77
2022/12/12 05:23:34;;;;;;;9.32;5.03;;;4.10;58.00;;;;;;6218248;28;20048;-78
2022/12/12 05:26:35;;;;;;;16.60;4.85;;;4.10;58.10;;;;;;6220031;28;20045;-78
2022/12/12 05:29:36;;;;;;;8.75;4.10;;;4.00;58.30;;;;;;6225318;28;20033;-77
2022/12/12 05:32:37;;;;;;;13.05;6.13;;;4.00;58.50;;;;;;6259184;28;20033;-78
2022/12/12 05:35:38;;;;;;;14.48;4.97;;;4.00;58.70;;;;;;6258745;28;20076;-78
2022/12/12 05:38:39;;;;;;;7.88;5.88;;;4.00;58.90;;;;;;6243270;28;20068;-77
2022/12/12 05:41:40;;;;;;;14.95;6.53;;;4.00;59.10;;;;;;6256205;28;20045;-77
2022/12/12 05:44:41;;;;;;;18.55;7.28;;;3.90;59.30;;;;;;6265471;28;20048;-77
2022/12/12 05:47:42;;;;;;;16.05;6.70;;;3.90;59.60;;;;;;6221955;28;20034;-78
2022/12/12 05:50:43;;;;;;;13.57;5.97;;;3.90;59.80;;;;;;6225641;28;20514;-78
2022/12/12 05:53:45;;;;;;;9.48;5.78;;;3.80;60.00;;;;;;6232693;28;20045;-78
2022/12/12 05:56:45;;;;;;;17.13;6.70;;;3.80;60.10;;;;;;6217132;28;20041;-77
2022/12/12 05:59:46;;;;;;;13.30;6.35;;;3.80;60.20;;;;;;6228172;28;20430;-77
2022/12/12 06:02:48;;;;;;;16.95;7.05;;;3.90;60.30;;;;;;6221080;28;20034;-78
2022/12/12 06:05:49;;;;;;;22.10;6.95;;;3.90;60.40;;;;;;6217232;28;20860;-78
2022/12/12 06:08:50;;;;;;;12.07;5.95;;;3.90;60.50;;;;;;6215448;28;20034;-78
2022/12/12 06:11:51;;;;;;;13.32;5.28;;;3.80;60.70;;;;;;6217482;28;20042;-78
2022/12/12 06:14:52;;;;;;;9.70;4.85;;;3.80;61.00;;;;;;6232030;28;20070;-78
2022/12/12 06:17:52;;;;;;;15.48;5.07;;;3.70;61.20;;;;;;6234105;28;20034;-78
2022/12/12 06:21:05;;;;;;;19.80;5.97;;;3.70;61.40;;;;;;6200375;28;20037;-79
2022/12/12 06:24:06;;;;;;;11.23;4.30;;;3.70;61.70;;;;;;6258603;28;20417;-77
2022/12/12 06:27:07;;;;;;;8.18;5.07;;;3.60;61.90;;;;;;6258529;28;20056;-78
2022/12/12 06:30:08;;;;;;;12.27;5.93;;;3.60;62.00;;;;;;6258590;28;20116;-78
2022/12/12 06:33:09;;;;;;;14.15;5.97;;;3.60;62.20;;;;;;6238047;28;20037;-78
2022/12/12 06:36:22;;;;;;;9.55;6.20;;;3.60;62.30;;;;;;6275864;28;20067;-77
2022/12/12 06:39:23;;;;;;;7.55;4.53;;;3.60;62.40;;;;;;6280766;28;20041;-78
2022/12/12 06:42:25;;;;;;;14.27;5.93;;;3.60;62.40;;;;;;6280675;28;20044;-78
2022/12/12 06:45:26;;;;;;;11.38;4.82;;;3.60;62.40;;;;;;6247596;28;20838;-77
2022/12/12 06:48:27;;;;;;;7.65;4.50;;;3.60;62.40;;;;;;6240533;28;20061;-78
2022/12/12 06:51:32;;;;;;;8.80;4.75;;;3.60;62.40;;;;;;6240496;28;20044;-79
2022/12/12 06:54:33;;;;;;;9.10;4.68;;;3.60;62.40;;;;;;6257601;28;20087;-77
2022/12/12 06:57:34;;;;;;;7.20;3.97;;;3.60;62.40;;;;;;6242864;28;20727;-78
2022/12/12 07:00:35;;;;;;;9.77;4.43;;;3.60;62.10;;;;;;6256740;28;20044;-79
2022/12/12 07:03:36;;;;;;;6.32;4.20;;;3.50;61.90;;;;;;6241596;28;20037;-79
2022/12/12 07:06:37;;;;;;;10.50;4.03;;;3.50;61.60;;;;;;6241133;28;20076;-79
2022/12/12 07:09:37;;;;;;;13.77;6.28;;;3.50;61.60;;;;;;6241616;28;20037;-79
2022/12/12 07:12:38;;;;;;;14.30;5.20;;;3.50;61.60;;;;;;6251624;28;20036;-78
2022/12/12 07:15:49;;;;;;;8.80;4.03;;;3.50;61.40;;;;;;6241301;28;20038;-76
2022/12/12 07:18:50;;;;;;;8.23;3.55;;;3.60;61.40;;;;;;6242042;28;20447;-79
2022/12/12 07:21:51;;;;;;;14.23;3.97;;;3.70;61.30;;;;;;6217903;28;20045;-77
2022/12/12 07:24:52;;;;;;;11.55;4.05;;;3.70;60.80;;;;;;6215276;28;20565;-78
2022/12/12 07:27:53;;;;;;;7.20;4.53;;;3.80;60.50;;;;;;6233053;28;20038;-77
2022/12/12 07:30:54;;;;;;;17.83;4.68;;;3.80;60.10;;;;;;6232504;28;20048;-77
2022/12/12 07:33:56;;;;;;;26.63;3.97;;;3.90;59.80;;;;;;6222119;28;20061;-77
2022/12/12 07:36:57;;;;;;;5.82;3.70;;;3.90;59.60;;;;;;6239181;28;20052;-79
2022/12/12 07:39:58;;;;;;;6.10;3.50;;;3.90;59.20;;;;;;6238571;28;20042;-78
2022/12/12 07:42:59;;;;;;;8.63;4.70;;;4.00;59.00;;;;;;6254810;28;20531;-77
2022/12/12 07:46:01;;;;;;;6.72;3.10;;;4.00;58.60;;;;;;6241684;28;20033;-78
2022/12/12 07:49:02;;;;;;;2.95;2.33;;;4.00;58.40;;;;;;6244369;28;20098;-77
2022/12/12 07:52:03;;;;;;;4.93;3.33;;;4.00;58.30;;;;;;6246677;28;20113;-79
2022/12/12 07:55:05;;;;;;;6.95;3.97;;;3.90;58.20;;;;;;6218607;28;20034;-78
2022/12/12 07:58:06;;;;;;;6.40;3.20;;;4.00;58.20;;;;;;6246583;28;20482;-77
2022/12/12 08:01:20;;;;;;;9.75;2.90;;;4.00;58.20;;;;;;6225882;28;20072;-79
2022/12/12 08:04:21;;;;;;;14.07;4.43;;;4.00;58.20;;;;;;6213823;28;20034;-78
2022/12/12 08:07:22;;;;;;;11.13;4.00;;;4.00;58.00;;;;;;6235424;28;20044;-78
2022/12/12 08:10:23;;;;;;;6.68;3.75;;;4.00;58.00;;;;;;6238231;28;20041;-79
2022/12/12 08:13:24;;;;;;;8.48;5.25;;;3.90;58.00;;;;;;6260342;28;20065;-77
2022/12/12 08:16:27;;;;;;;12.45;4.88;;;3.90;58.10;;;;;;6245939;28;20513;-77
2022/12/12 08:19:28;;;;;;;11.82;4.38;;;3.90;58.10;;;;;;6245206;28;20037;-77
2022/12/12 08:22:29;;;;;;;8.10;4.30;;;3.80;58.20;;;;;;6244467;28;20136;-78
2022/12/12 08:25:32;;;;;;;9.10;4.43;;;3.90;58.20;;;;;;6260420;28;20037;-78
2022/12/12 08:28:33;;;;;;;18.15;5.45;;;3.90;58.30;;;;;;6227603;28;20037;-77
2022/12/12 08:31:36;;;;;;;10.15;4.07;;;3.90;58.40;;;;;;6243143;28;20044;-77
2022/12/12 08:34:37;;;;;;;14.32;4.30;;;4.00;58.40;;;;;;6242604;28;20650;-79
2022/12/12 08:37:38;;;;;;;12.50;4.88;;;4.10;58.50;;;;;;6258710;28;20032;-78
2022/12/12 08:40:40;;;;;;;45.30;6.43;;;4.10;58.40;;;;;;6257841;28;20152;-79
2022/12/12 08:43:42;;;;;;;18.90;6.40;;;4.20;58.40;;;;;;6214672;28;20128;-78
2022/12/12 08:46:43;;;;;;;21.88;7.05;;;4.20;58.40;;;;;;6228432;28;20108;-79
2022/12/12 08:49:44;;;;;;;19.70;6.25;;;4.30;58.40;;;;;;6244429;28;20496;-78
2022/12/12 08:52:45;;;;;;;24.58;6.68;;;4.30;58.40;;;;;;6241934;28;20136;-78
2022/12/12 08:55:45;;;;;;;16.42;7.65;;;4.50;58.40;;;;;;6242310;28;20064;-78
2022/12/12 08:58:47;;;;;;;17.50;6.45;;;4.50;58.40;;;;;;6241218;28;20120;-78
2022/12/12 09:01:49;;;;;;;13.68;6.13;;;4.60;58.40;;;;;;6240260;28;20102;-79
2022/12/12 09:04:51;;;;;;;16.13;7.10;;;4.70;58.40;;;;;;6242481;28;20038;-78
2022/12/12 09:07:52;;;;;;;21.17;8.07;;;4.70;58.40;;;;;;6233336;28;20064;-79
2022/12/12 09:10:53;;;;;;;13.52;6.18;;;4.70;58.20;;;;;;6231345;28;20474;-79
2022/12/12 09:13:54;;;;;;;14.27;5.43;;;4.80;57.90;;;;;;6215622;28;20231;-80
2022/12/12 09:16:55;;;;;;;11.68;6.38;;;4.80;57.70;;;;;;6240638;28;20072;-80
2022/12/12 09:19:56;;;;;;;14.40;5.57;;;4.80;57.50;;;;;;6247055;28;20047;-79
2022/12/12 09:22:57;;;;;;;9.65;5.90;;;4.80;57.50;;;;;;6259672;28;20083;-80
2022/12/12 09:26:04;;;;;;;12.63;4.78;;;4.90;57.50;;;;;;6259406;28;20044;-79
2022/12/12 09:29:05;;;;;;;10.98;5.10;;;4.90;57.30;;;;;;6244268;28;20041;-79
2022/12/12 09:32:05;;;;;;;18.65;6.97;;;5.00;57.10;;;;;;6241922;28;20059;-77
2022/12/12 09:35:07;;;;;;;15.15;7.03;;;5.00;57.00;;;;;;6249540;28;20045;-79
2022/12/12 09:38:08;;;;;;;18.33;8.48;;;5.10;57.00;;;;;;6241647;28;20144;-79
2022/12/12 09:41:09;;;;;;;22.02;8.30;;;5.10;57.10;;;;;;6240746;28;20044;-78
2022/12/12 09:44:17;;;;;;;16.88;8.68;;;5.20;57.20;;;;;;6216587;28;20529;-79
2022/12/12 09:47:40;;;;;;;24.83;9.80;;;5.30;57.20;;;;;;6234325;28;20042;-77
2022/12/12 09:50:45;;;;;;;13.93;7.25;;;5.40;57.30;;;;;;6250326;28;20120;-79
2022/12/12 09:53:46;;;;;;;20.98;7.63;;;5.50;57.40;;;;;;6225142;28;20359;-78
2022/12/12 09:56:52;;;;;;;16.08;7.03;;;5.70;57.40;;;;;;6220631;28;20042;-80
2022/12/12 10:00:02;;;;;;;19.45;7.85;;;5.80;56.90;;;;;;6193810;28;20041;-79
2022/12/12 10:03:32;;;;;;;21.65;9.90;;;6.10;56.50;;;;;;6222203;28;20113;-78
2022/12/12 10:06:57;;;;;;;46.00;8.48;;;6.30;55.80;;;;;;6222884;28;20041;-78
2022/12/12 10:09:58;;;;;;;21.95;10.70;;;6.40;55.90;;;;;;6222908;28;20065;-78
2022/12/12 10:13:01;;;;;;;21.02;8.32;;;6.60;55.50;;;;;;6223431;28;20385;-79
2022/12/12 10:16:13;;;;;;;30.40;9.10;;;6.70;55.10;;;;;;6239335;28;20366;-79
2022/12/12 10:19:21;;;;;;;25.30;10.80;;;6.70;54.70;;;;;;6230859;28;20033;-78
2022/12/12 10:22:50;;;;;;;21.25;7.68;;;6.80;54.70;;;;;;6213305;28;20377;-79
2022/12/12 10:26:13;;;;;;;;;;;6.90;54.50;;;;;;6161852;28;20340;-77
2022/12/12 10:29:19;;;;;;;18.70;8.23;;;7.20;54.60;;;;;;6218118;28;19913;-80
2022/12/12 10:32:26;;;;;;;19.30;8.63;;;7.20;54.20;;;;;;6228373;28;20455;-79
2022/12/12 10:35:46;;;;;;;20.90;9.00;;;7.50;53.40;;;;;;6222608;28;20049;-80
2022/12/12 10:39:19;;;;;;;26.75;9.70;;;7.60;52.80;;;;;;6204565;28;20041;-79
2022/12/12 10:42:41;;;;;;;17.38;7.95;;;7.90;52.40;;;;;;6223436;28;20453;-79
2022/12/12 10:45:54;;;;;;;17.25;8.23;;;8.10;51.90;;;;;;6254131;28;20044;-79
2022/12/12 10:48:56;;;;;;;17.48;8.23;;;8.50;51.20;;;;;;6239013;28;20041;-79
2022/12/12 10:52:01;;;;;;;14.90;7.25;;;8.80;50.30;;;;;;6253560;28;20039;-80
2022/12/12 10:55:16;;;;;;;24.35;8.50;;;9.00;50.00;;;;;;6239920;28;20347;-78
2022/12/12 10:58:17;;;;;;;14.77;8.05;;;9.20;49.90;;;;;;6242138;28;20396;-78
2022/12/12 11:01:25;;;;;;;14.27;6.75;;;9.60;49.20;;;;;;6240576;28;20131;-78
2022/12/12 11:04:30;;;;;;;20.35;7.32;;;9.90;48.40;;;;;;6242081;28;20038;-78
2022/12/12 11:07:44;;;;;;;19.40;7.22;;;10.30;47.10;;;;;;6239954;28;20042;-81
2022/12/12 11:10:59;;;;;;;16.70;7.57;;;10.50;46.00;;;;;;6256788;28;20045;-79
2022/12/12 11:14:02;;;;;;;20.17;8.50;;;10.50;45.40;;;;;;6256799;28;20049;-79
2022/12/12 11:17:32;;;;;;;10.45;5.82;;;10.60;44.90;;;;;;6232806;28;20039;-79
2022/12/12 11:20:33;;;;;;;;;;;10.90;44.50;;;;;;6256265;28;20044;-79
2022/12/12 11:23:38;;;;;;;12.55;5.57;;;11.40;42.70;;;;;;6283685;28;20334;-79
2022/12/12 11:26:47;;;;;;;17.65;7.15;;;11.60;41.50;;;;;;6259832;28;20450;-78
2022/12/12 11:29:52;;;;;;;18.58;7.95;;;11.70;41.20;;;;;;6256243;28;20052;-77
2022/12/12 11:32:55;;;;;;;16.35;7.82;;;11.70;41.10;;;;;;6256203;28;20041;-78
2022/12/12 11:35:57;;;;;;;21.27;8.38;;;11.90;41.50;;;;;;6262266;28;20570;-78
2022/12/12 11:39:01;;;;;;;18.38;8.45;;;11.90;41.70;;;;;;6269018;28;20093;-79
2022/12/12 11:42:25;;;;;;;16.83;6.60;;;11.70;42.30;;;;;;6274113;28;20458;-79
2022/12/12 11:45:26;;;;;;;18.15;7.55;;;11.40;42.60;;;;;;6251427;28;20052;-78
2022/12/12 11:48:33;;;;;;;18.52;5.43;;;11.10;42.80;;;;;;6281253;28;20120;-78
2022/12/12 11:51:42;;;;;;;13.68;6.18;;;10.80;42.90;;;;;;6227186;28;20048;-78
2022/12/12 11:54:43;;;;;;;17.98;7.20;;;10.40;43.20;;;;;;6225340;28;20045;-79
2022/12/12 11:58:02;;;;;;;14.60;6.60;;;10.00;43.60;;;;;;6221389;28;20447;-78
2022/12/12 12:01:20;;;;;;;22.30;6.95;;;9.60;44.20;;;;;;6253455;28;20124;-79
2022/12/12 12:04:46;;;;;;;14.70;5.63;;;9.40;44.70;;;;;;6247009;28;20480;-78
2022/12/12 12:08:15;;;;;;;11.68;5.97;;;9.10;45.10;;;;;;6245289;28;20093;-79
2022/12/12 12:11:23;;;;;;;15.07;6.50;;;8.90;45.60;;;;;;6220216;28;20099;-79
2022/12/12 12:14:33;;;;;;;;;;;8.80;45.70;;;;;;6212995;28;20428;-77
2022/12/12 12:18:20;;;;;;;12.38;5.65;;;8.60;45.50;;;;;;6235892;28;19916;-79
2022/12/12 12:21:24;;;;;;;11.75;5.15;;;8.40;46.10;;;;;;6212989;28;20447;-78
2022/12/12 12:24:39;;;;;;;13.13;4.70;;;8.30;46.50;;;;;;6220659;28;20087;-78
2022/12/12 12:28:04;;;;;;;12.80;5.72;;;8.20;46.70;;;;;;6220245;28;20198;-80
2022/12/12 12:31:26;;;;;;;11.20;4.97;;;8.10;46.40;;;;;;6250550;28;20056;-79
2022/12/12 12:35:00;;;;;;;11.27;4.47;;;8.00;46.50;;;;;;6240089;28;20091;-78
2022/12/12 12:38:40;;;;;;;10.13;5.35;;;7.90;46.90;;;;;;6236612;28;20036;-78
2022/12/12 12:42:05;;;;;;;5.57;2.75;;;7.90;47.10;;;;;;6245287;28;20131;-79
2022/12/12 12:45:25;;;;;;;10.15;4.15;;;7.90;47.10;;;;;;6225034;28;20387;-78
2022/12/12 12:48:41;;;;;;;14.35;5.47;;;7.80;47.10;;;;;;6234503;28;20366;-78
2022/12/12 12:52:08;;;;;;;19.02;4.38;;;7.80;47.30;;;;;;6207524;28;20034;-78
2022/12/12 12:55:18;;;;;;;11.40;5.22;;;7.70;47.40;;;;;;6208900;28;20356;-78
2022/12/12 12:58:29;;;;;;;12.68;4.55;;;7.70;47.50;;;;;;6249671;28;20037;-78
2022/12/12 13:01:40;;;;;;;12.90;4.93;;;7.70;47.50;;;;;;6233145;28;20034;-78
2022/12/12 13:05:08;;;;;;;10.63;4.40;;;7.80;47.60;;;;;;6242120;28;20145;-79
2022/12/12 13:08:25;;;;;;;15.02;5.07;;;7.80;47.80;;;;;;6257267;28;20386;-78
2022/12/12 13:11:34;;;;;;;10.30;4.57;;;7.80;47.70;;;;;;6258718;28;20037;-79
2022/12/12 13:14:48;;;;;;;10.23;4.70;;;7.90;47.70;;;;;;6243982;28;20049;-78
2022/12/12 13:18:03;;;;;;;8.45;4.55;;;8.00;47.60;;;;;;6244758;28;20053;-77
2022/12/12 13:21:30;;;;;;;8.95;3.90;;;8.00;47.40;;;;;;6257657;28;20037;-78
2022/12/12 13:24:54;;;;;;;8.65;4.13;;;8.10;47.40;;;;;;6258028;28;20052;-77
2022/12/12 13:27:59;;;;;;;10.63;4.60;;;8.10;47.20;;;;;;6255604;28;20489;-78
2022/12/12 13:31:22;;;;;;;12.45;3.30;;;8.20;47.40;;;;;;6216877;28;20038;-77
2022/12/12 13:34:26;;;;;;;14.70;4.38;;;8.30;47.10;;;;;;6213030;28;20050;-78
2022/12/12 13:37:31;;;;;;;14.07;3.80;;;8.30;46.80;;;;;;6253247;28;20031;-79
2022/12/12 13:40:40;;;;;;;6.15;2.95;;;8.40;46.80;;;;;;6232735;28;20034;-79
2022/12/12 13:43:44;;;;;;;10.73;4.75;;;8.50;46.70;;;;;;6197432;28;20038;-77
2022/12/12 13:46:47;;;;;;;6.40;3.38;;;8.50;46.40;;;;;;6192198;28;20473;-78
2022/12/12 13:50:08;;;;;;;10.80;4.47;;;8.50;46.60;;;;;;6201740;28;20084;-78
2022/12/12 13:53:16;;;;;;;10.25;4.28;;;8.60;46.50;;;;;;6216365;28;20095;-77
2022/12/12 13:56:35;;;;;;;7.00;3.38;;;8.70;46.60;;;;;;6235137;28;20548;-79
2022/12/12 13:59:59;;;;;;;10.10;4.22;;;8.70;46.60;;;;;;6242162;28;20030;-78
2022/12/12 14:03:08;;;;;;;11.00;5.05;;;8.70;46.10;;;;;;6206579;28;20033;-77
2022/12/12 14:06:11;;;;;;;8.90;4.13;;;8.70;46.00;;;;;;6244998;28;20095;-79
2022/12/12 14:09:20;;;;;;;11.00;4.47;;;8.70;45.90;;;;;;6241251;28;20030;-78
2022/12/12 14:12:29;;;;;;;10.13;3.78;;;8.70;45.80;;;;;;6241491;28;20434;-79
2022/12/12 14:15:32;;;;;;;8.65;3.70;;;8.70;45.70;;;;;;6282310;28;20033;-78
2022/12/12 14:18:52;;;;;;;9.07;3.90;;;8.60;45.60;;;;;;6256480;28;20049;-79
2022/12/12 14:21:53;;;;;;;8.27;4.38;;;8.60;45.90;;;;;;6261215;28;20439;-78
2022/12/12 14:25:34;;;;;;;8.48;3.83;;;8.60;46.10;;;;;;6245689;28;20442;-80
2022/12/12 14:28:35;;;;;;;6.70;3.63;;;8.50;46.00;;;;;;6233600;28;20045;-77
2022/12/12 14:31:40;;;;;;;8.02;3.90;;;8.50;45.90;;;;;;6236081;28;20344;-78
2022/12/12 14:34:59;;;;;;;9.00;4.00;;;8.40;46.10;;;;;;6239355;28;20125;-77
2022/12/12 14:38:02;;;;;;;;;;;8.30;46.00;;;;;;6221092;28;20056;-77
2022/12/12 14:41:15;;;;;;;7.82;3.50;;;8.30;46.00;;;;;;6230732;28;19918;-78
2022/12/12 14:44:27;;;;;;;14.68;7.45;;;8.30;46.20;;;;;;6256192;28;20076;-77
2022/12/12 14:47:28;;;;;;;22.73;7.82;;;8.40;46.40;;;;;;6241558;28;20048;-79
2022/12/12 14:50:29;;;;;;;10.88;5.45;;;8.40;46.50;;;;;;6257375;28;20037;-79
2022/12/12 14:53:37;;;;;;;14.38;4.72;;;8.40;46.50;;;;;;6240145;28;20051;-79
2022/12/12 14:56:41;;;;;;;17.02;4.32;;;8.50;46.50;;;;;;6245262;28;20037;-79
2022/12/12 14:59:44;;;;;;;12.85;5.65;;;8.50;46.40;;;;;;6264115;28;20109;-78
2022/12/12 15:02:49;;;;;;;10.27;4.78;;;8.50;46.50;;;;;;6245155;28;20124;-78
2022/12/12 15:06:18;;;;;;;11.32;3.90;;;8.60;46.50;;;;;;6206406;28;20127;-79
2022/12/12 15:09:29;;;;;;;10.88;4.30;;;8.50;46.40;;;;;;6221468;28;20046;-79
2022/12/12 15:12:41;;;;;;;21.85;6.57;;;8.50;46.50;;;;;;6220447;28;20465;-78
2022/12/12 15:15:42;;;;;;;8.48;3.88;;;8.40;46.60;;;;;;6220464;28;20073;-78
2022/12/12 15:18:43;;;;;;;11.68;4.53;;;8.40;46.60;;;;;;6218673;28;20034;-78
2022/12/12 15:21:45;;;;;;;12.13;4.90;;;8.40;46.60;;;;;;6220421;28;20052;-79
2022/12/12 15:24:46;;;;;;;9.27;4.00;;;8.40;46.80;;;;;;6240993;28;20459;-76
2022/12/12 15:27:50;;;;;;;11.85;4.00;;;8.40;46.80;;;;;;6231307;28;20038;-77
2022/12/12 15:30:52;;;;;;;27.25;7.55;;;8.40;46.80;;;;;;6220242;28;20294;-77
2022/12/12 15:33:53;;;;;;;11.95;5.40;;;8.30;46.80;;;;;;6227635;28;20046;-76
2022/12/12 15:36:54;;;;;;;7.00;4.20;;;8.40;47.00;;;;;;6222909;28;20187;-79
2022/12/12 15:40:09;;;;;;;7.97;3.80;;;8.40;47.00;;;;;;6236175;28;20444;-78
2022/12/12 15:43:20;;;;;;;14.02;4.95;;;8.30;46.90;;;;;;6260621;28;20043;-77
2022/12/12 15:46:21;;;;;;;15.95;5.22;;;8.30;46.90;;;;;;6219380;28;20045;-78
2022/12/12 15:49:36;;;;;;;16.23;6.88;;;8.20;47.00;;;;;;6221754;28;20052;-77
2022/12/12 15:52:37;;;;;;;14.55;4.90;;;8.10;47.20;;;;;;6245788;28;20037;-78
2022/12/12 15:55:39;;;;;;;16.35;6.75;;;8.10;47.40;;;;;;6244095;28;20340;-79
2022/12/12 15:59:03;;;;;;;10.05;4.88;;;8.10;47.50;;;;;;6219025;28;20041;-79
2022/12/12 16:02:29;;;;;;;12.18;5.55;;;8.00;47.60;;;;;;6234486;28;20152;-78
2022/12/12 16:05:36;;;;;;;22.33;6.80;;;8.00;47.80;;;;;;6233559;28;20038;-79
2022/12/12 16:08:43;;;;;;;13.93;6.63;;;7.90;47.80;;;;;;6226861;28;20045;-78
2022/12/12 16:11:52;;;;;;;11.52;5.63;;;7.90;47.90;;;;;;6220816;28;20064;-78
2022/12/12 16:14:53;;;;;;;16.75;4.70;;;7.90;48.00;;;;;;6218732;28;20076;-78
2022/12/12 16:17:59;;;;;;;12.20;5.18;;;7.90;48.00;;;;;;6234770;28;20240;-78
2022/12/12 16:21:00;;;;;;;7.82;4.03;;;7.80;48.00;;;;;;6218671;28;20042;-77
2022/12/12 16:24:20;;;;;;;9.75;4.75;;;7.90;48.20;;;;;;6217950;28;20064;-78
2022/12/12 16:27:21;;;;;;;9.18;4.18;;;7.80;48.20;;;;;;6258123;28;20140;-78
2022/12/12 16:30:23;;;;;;;10.32;4.63;;;7.80;48.30;;;;;;6243678;28;20037;-77
2022/12/12 16:33:27;;;;;;;11.30;5.40;;;7.80;48.40;;;;;;6243331;28;20040;-78
2022/12/12 16:36:27;;;;;;;24.73;5.50;;;7.90;48.60;;;;;;6246161;28;20422;-78
2022/12/12 16:39:28;;;;;;;13.35;4.30;;;7.80;48.60;;;;;;6243592;28;20044;-80
2022/12/12 16:42:29;;;;;;;21.52;5.60;;;7.90;48.80;;;;;;6244274;28;20136;-79